Time;durP1;ratioP1;P1;durP2;ratioP2;P2;SDS_P1;SDS_P2;PMS_P1;PMS_P2;Temp;Humidity;BMP_temperature;BMP_pressure;BME280_temperature;BME280_humidity;BME280_pressure;Samples;Min_cycle;Max_cycle;Signal;HPM_P1;HPM_P2
2023/08/28 00:01:41;;;;;;;5.03;4.53;;;22.60;64.20;;;;;;5034486;28;20194;-48
2023/08/28 00:04:07;;;;;;;4.83;4.33;;;22.70;64.10;;;;;;5021066;28;20186;-46
2023/08/28 00:06:32;;;;;;;5.17;4.70;;;22.70;63.70;;;;;;5027973;28;20200;-45
2023/08/28 00:08:58;;;;;;;5.93;4.70;;;22.70;63.50;;;;;;5022812;28;20245;-45
2023/08/28 00:11:23;;;;;;;4.87;4.40;;;22.60;63.60;;;;;;5024740;28;20204;-45
2023/08/28 00:13:49;;;;;;;5.63;4.90;;;22.60;63.60;;;;;;5028740;28;20229;-50
2023/08/28 00:16:15;;;;;;;10.53;4.43;;;22.60;63.80;;;;;;5014611;28;20637;-45
2023/08/28 00:18:40;;;;;;;5.27;4.73;;;22.50;64.30;;;;;;5028748;28;20225;-45
2023/08/28 00:21:06;;;;;;;5.70;5.20;;;22.50;64.90;;;;;;5024794;28;20194;-48
2023/08/28 00:23:33;;;;;;;5.03;4.40;;;22.50;65.30;;;;;;5028491;28;20201;-47
2023/08/28 00:25:59;;;;;;;5.80;4.47;;;22.50;65.30;;;;;;5020215;28;20518;-46
2023/08/28 00:28:25;;;;;;;6.70;5.07;;;22.50;65.00;;;;;;5029630;28;20208;-45
2023/08/28 00:30:51;;;;;;;5.37;4.87;;;22.60;64.50;;;;;;5029885;28;20440;-45
2023/08/28 00:33:16;;;;;;;4.70;4.30;;;22.60;64.00;;;;;;5017398;28;20268;-51
2023/08/28 00:35:42;;;;;;;9.17;5.43;;;22.60;64.30;;;;;;5026077;28;20295;-45
2023/08/28 00:38:12;;;;;;;7.73;4.73;;;22.60;64.60;;;;;;5027731;28;20225;-47
2023/08/28 00:40:40;;;;;;;6.80;4.50;;;22.60;64.20;;;;;;5018332;28;20873;-45
2023/08/28 00:43:07;;;;;;;7.13;4.27;;;22.60;63.90;;;;;;5027975;28;20997;-45
2023/08/28 00:45:33;;;;;;;6.90;5.17;;;22.60;63.80;;;;;;5021780;28;20931;-50
2023/08/28 00:47:58;;;;;;;6.30;5.57;;;22.60;63.80;;;;;;5032260;28;20511;-45
2023/08/28 00:50:25;;;;;;;4.60;4.13;;;22.50;64.50;;;;;;5026465;28;20860;-45
2023/08/28 00:52:50;;;;;;;4.47;4.03;;;22.50;64.80;;;;;;5027514;28;20692;-44
2023/08/28 00:55:16;;;;;;;5.27;4.20;;;22.30;64.80;;;;;;5017791;28;20531;-48
2023/08/28 00:57:42;;;;;;;4.20;3.67;;;22.20;66.00;;;;;;5025273;28;20202;-45
2023/08/28 01:00:10;;;;;;;4.57;3.97;;;22.20;66.70;;;;;;5016723;28;20251;-45
2023/08/28 01:02:37;;;;;;;6.67;3.73;;;22.20;66.60;;;;;;5022512;28;20227;-45
2023/08/28 01:05:04;;;;;;;3.80;3.50;;;22.30;66.20;;;;;;5031614;28;20506;-45
2023/08/28 01:07:55;;;;;;;4.13;3.73;;;22.40;65.70;;;;;;5026328;28;20585;-46
2023/08/28 01:10:28;;;;;;;3.63;3.33;;;22.40;65.40;;;;;;5025649;28;20510;-45
2023/08/28 01:13:04;;;;;;;3.57;3.27;;;22.30;65.60;;;;;;5024945;28;20474;-46
2023/08/28 01:15:32;;;;;;;6.73;4.07;;;22.30;65.80;;;;;;5023746;28;20999;-45
2023/08/28 01:18:02;;;;;;;5.43;2.70;;;22.30;65.50;;;;;;5019376;28;20440;-45
2023/08/28 01:20:30;;;;;;;7.37;3.23;;;22.30;65.20;;;;;;5019424;28;20440;-46
2023/08/28 01:22:59;;;;;;;4.20;3.20;;;22.30;65.50;;;;;;5033120;28;20453;-46
2023/08/28 01:25:25;;;;;;;8.50;3.33;;;22.20;66.30;;;;;;5026568;28;20446;-47
2023/08/28 01:27:52;;;;;;;6.57;3.50;;;22.20;66.70;;;;;;5027716;28;20443;-45
2023/08/28 01:30:18;;;;;;;4.70;3.40;;;22.30;66.40;;;;;;5026433;28;20457;-46
2023/08/28 01:32:45;;;;;;;3.47;3.17;;;22.20;65.30;;;;;;5025054;28;20801;-46
2023/08/28 01:35:29;;;;;;;3.80;3.50;;;22.10;66.30;;;;;;5023731;28;20209;-47
2023/08/28 01:38:23;;;;;;;3.37;2.70;;;22.10;66.40;;;;;;5029237;28;20454;-45
2023/08/28 01:40:54;;;;;;;5.47;3.20;;;22.10;65.60;;;;;;5004622;28;20540;-47
2023/08/28 01:43:22;;;;;;;5.83;3.07;;;21.90;65.80;;;;;;5029255;28;20466;-48
2023/08/28 01:45:53;;;;;;;3.80;3.50;;;21.90;67.20;;;;;;5025344;28;21003;-46
2023/08/28 01:48:18;;;;;;;3.40;2.77;;;22.00;67.60;;;;;;5025350;28;20520;-45
2023/08/28 01:50:44;;;;;;;3.00;2.80;;;22.10;66.90;;;;;;5027228;28;20522;-44
2023/08/28 01:53:13;;;;;;;4.40;2.50;;;22.10;66.70;;;;;;5022704;28;20677;-47
2023/08/28 01:56:09;;;;;;;2.80;2.60;;;22.10;66.90;;;;;;5025166;28;20256;-47
2023/08/28 01:58:47;;;;;;;3.20;2.80;;;22.20;66.30;;;;;;5038045;28;20862;-47
2023/08/28 02:01:12;;;;;;;2.70;2.37;;;22.30;65.50;;;;;;5030641;28;20522;-47
2023/08/28 02:03:38;;;;;;;3.57;2.93;;;22.30;65.10;;;;;;5027308;28;20543;-45
2023/08/28 02:06:05;;;;;;;6.20;3.30;;;22.40;64.80;;;;;;5030440;28;20192;-45
2023/08/28 02:08:31;;;;;;;2.83;2.60;;;22.40;64.50;;;;;;5023257;28;20473;-46
2023/08/28 02:10:56;;;;;;;3.10;2.80;;;22.40;64.30;;;;;;5030247;28;20477;-45
2023/08/28 02:13:22;;;;;;;4.50;3.20;;;22.30;64.30;;;;;;5025210;28;20229;-48
2023/08/28 02:15:48;;;;;;;3.57;2.90;;;22.30;64.30;;;;;;5023269;28;20217;-45
2023/08/28 02:18:13;;;;;;;3.30;3.00;;;22.30;64.20;;;;;;5027476;28;20242;-46
2023/08/28 02:20:39;;;;;;;4.23;3.40;;;22.20;64.20;;;;;;5038255;28;20223;-46
2023/08/28 02:23:05;;;;;;;3.37;3.07;;;22.10;64.40;;;;;;5018479;28;20205;-45
2023/08/28 02:25:30;;;;;;;3.77;3.47;;;22.10;64.70;;;;;;5030821;28;20448;-45
2023/08/28 02:27:57;;;;;;;3.77;3.47;;;22.10;64.90;;;;;;5027276;28;20197;-47
2023/08/28 02:30:23;;;;;;;3.57;3.27;;;22.10;64.80;;;;;;5031411;28;20197;-45
2023/08/28 02:32:49;;;;;;;3.83;3.37;;;22.10;64.50;;;;;;5031411;28;20461;-45
2023/08/28 02:35:14;;;;;;;4.87;3.50;;;22.00;64.50;;;;;;5031912;28;20232;-45
2023/08/28 02:37:40;;;;;;;4.03;3.10;;;22.00;64.70;;;;;;5023283;28;20248;-46
2023/08/28 02:40:06;;;;;;;3.20;2.90;;;22.00;65.00;;;;;;5026621;28;20937;-45
2023/08/28 02:42:32;;;;;;;7.33;2.77;;;22.00;65.30;;;;;;5028267;28;20448;-47
2023/08/28 02:44:58;;;;;;;3.20;2.90;;;22.00;65.00;;;;;;5029719;28;20440;-46
2023/08/28 02:47:23;;;;;;;4.67;3.80;;;22.10;64.80;;;;;;5027915;28;20193;-46
2023/08/28 02:49:49;;;;;;;5.90;3.30;;;22.10;64.60;;;;;;5026388;28;20638;-47
2023/08/28 02:52:14;;;;;;;4.93;2.93;;;22.00;64.40;;;;;;5028943;28;20185;-45
2023/08/28 02:54:40;;;;;;;3.47;3.13;;;22.00;64.50;;;;;;5032340;28;20232;-46
2023/08/28 02:57:06;;;;;;;3.93;3.13;;;22.00;65.80;;;;;;5025514;28;20251;-47
2023/08/28 02:59:32;;;;;;;3.67;3.40;;;22.00;65.80;;;;;;5028916;28;20251;-47
2023/08/28 03:01:58;;;;;;;3.27;2.90;;;22.10;65.30;;;;;;5026924;28;20201;-50
2023/08/28 03:04:23;;;;;;;3.03;2.83;;;22.10;64.90;;;;;;5030937;28;20996;-48
2023/08/28 03:06:49;;;;;;;3.73;2.97;;;22.10;64.60;;;;;;5032250;28;20197;-47
2023/08/28 03:11:40;;;;;;;2.70;2.43;;;22.00;64.40;;;;;;5026919;28;20208;-44
2023/08/28 03:14:07;;;;;;;3.20;2.90;;;22.00;64.70;;;;;;5020520;28;20193;-49
2023/08/28 03:16:33;;;;;;;5.83;3.10;;;22.00;64.90;;;;;;5025673;28;20562;-46
2023/08/28 03:18:58;;;;;;;3.17;2.93;;;22.00;65.20;;;;;;5030463;28;22192;-45
2023/08/28 03:21:24;;;;;;;5.77;3.10;;;22.00;65.30;;;;;;5028365;28;20649;-45
2023/08/28 03:23:51;;;;;;;3.07;2.87;;;22.10;65.10;;;;;;5024475;28;20297;-49
2023/08/28 03:26:16;;;;;;;3.77;2.93;;;22.10;65.00;;;;;;5032897;28;20195;-45
2023/08/28 03:28:42;;;;;;;3.10;2.80;;;22.10;64.90;;;;;;5033075;28;20543;-46
2023/08/28 03:31:08;;;;;;;4.80;2.87;;;22.20;65.10;;;;;;5035066;28;20188;-47
2023/08/28 03:33:35;;;;;;;2.97;2.60;;;22.20;64.80;;;;;;5023273;28;20196;-45
2023/08/28 03:36:01;;;;;;;3.40;3.10;;;22.30;64.50;;;;;;5029878;28;20491;-44
2023/08/28 03:38:27;;;;;;;5.07;3.03;;;22.30;64.00;;;;;;5019624;28;20527;-47
2023/08/28 03:40:52;;;;;;;2.63;2.43;;;22.20;63.30;;;;;;5028672;28;20524;-44
2023/08/28 03:43:18;;;;;;;5.53;2.93;;;22.20;63.20;;;;;;5029826;28;20251;-45
2023/08/28 03:45:44;;;;;;;3.97;2.90;;;22.10;63.40;;;;;;5031706;28;20641;-44
2023/08/28 03:48:09;;;;;;;4.80;3.60;;;22.00;63.50;;;;;;5028174;28;20290;-45
2023/08/28 03:50:35;;;;;;;3.47;3.20;;;21.90;63.80;;;;;;5030560;28;20185;-45
2023/08/28 03:53:01;;;;;;;3.30;3.00;;;21.80;64.00;;;;;;5028600;28;20225;-48
2023/08/28 03:55:29;;;;;;;3.80;3.60;;;21.80;64.90;;;;;;5028153;28;20236;-46
2023/08/28 03:57:55;;;;;;;4.20;3.90;;;21.80;66.20;;;;;;5030148;28;20798;-47
2023/08/28 04:00:21;;;;;;;5.40;3.33;;;21.80;65.90;;;;;;5029719;28;20943;-45
2023/08/28 04:02:47;;;;;;;3.83;3.53;;;21.80;65.60;;;;;;5031317;28;20448;-44
2023/08/28 04:05:18;;;;;;;4.37;3.47;;;21.90;65.30;;;;;;5026150;28;20185;-48
2023/08/28 04:07:43;;;;;;;2.93;2.57;;;21.80;64.60;;;;;;5024921;28;20802;-47
2023/08/28 04:10:10;;;;;;;3.23;2.80;;;21.70;65.80;;;;;;5031056;28;20439;-45
2023/08/28 04:12:36;;;;;;;4.73;2.77;;;21.70;66.60;;;;;;5028739;28;20658;-47
2023/08/28 04:15:03;;;;;;;8.10;2.97;;;21.80;66.90;;;;;;5023253;28;20443;-48
2023/08/28 04:17:29;;;;;;;4.63;3.47;;;21.80;66.90;;;;;;5021273;28;20703;-47
2023/08/28 04:19:55;;;;;;;3.70;2.93;;;21.80;66.30;;;;;;5033483;28;20448;-49
2023/08/28 04:22:21;;;;;;;3.83;2.70;;;21.90;65.90;;;;;;5031087;28;20194;-45
2023/08/28 04:24:50;;;;;;;3.60;3.30;;;21.90;65.10;;;;;;5027204;28;20562;-48
2023/08/28 04:27:16;;;;;;;3.63;3.33;;;21.80;64.70;;;;;;5029863;28;20971;-46
2023/08/28 04:29:42;;;;;;;5.23;4.40;;;21.80;64.60;;;;;;5028026;28;23275;-50
2023/08/28 04:32:09;;;;;;;5.87;3.30;;;21.80;65.00;;;;;;5024557;28;20524;-45
2023/08/28 04:34:35;;;;;;;4.07;3.77;;;21.80;64.60;;;;;;5028218;28;20458;-45
2023/08/28 04:37:00;;;;;;;11.70;4.73;;;21.80;64.60;;;;;;5025998;28;20574;-45
2023/08/28 04:39:26;;;;;;;4.63;4.23;;;21.80;64.40;;;;;;5025034;28;20528;-47
2023/08/28 04:41:52;;;;;;;6.20;4.33;;;21.80;64.40;;;;;;5029027;28;20276;-45
2023/08/28 04:44:20;;;;;;;5.63;4.30;;;21.70;64.50;;;;;;5027680;28;20189;-47
2023/08/28 04:46:47;;;;;;;5.77;5.00;;;21.70;64.70;;;;;;5029856;28;20431;-45
2023/08/28 04:49:13;;;;;;;7.10;3.80;;;21.60;65.80;;;;;;5031184;28;21041;-48
2023/08/28 04:51:38;;;;;;;4.83;4.33;;;21.60;65.90;;;;;;5021981;28;20531;-46
2023/08/28 04:54:04;;;;;;;4.50;4.10;;;21.70;66.40;;;;;;5020334;28;20466;-46
2023/08/28 04:56:29;;;;;;;5.27;4.87;;;21.70;65.90;;;;;;5030006;28;20241;-45
2023/08/28 04:58:55;;;;;;;5.73;4.77;;;21.70;65.30;;;;;;5034903;28;20197;-47
2023/08/28 05:01:20;;;;;;;5.20;4.80;;;21.70;65.20;;;;;;5025738;28;20629;-50
2023/08/28 05:03:46;;;;;;;4.67;4.23;;;21.70;65.10;;;;;;5030633;28;20220;-47
2023/08/28 05:06:12;;;;;;;5.63;4.90;;;21.70;65.20;;;;;;5029814;28;20196;-45
2023/08/28 05:08:37;;;;;;;5.07;4.40;;;21.70;65.40;;;;;;5026239;28;20209;-47
2023/08/28 05:11:03;;;;;;;6.03;5.43;;;21.80;65.50;;;;;;5021858;28;20270;-48
2023/08/28 05:13:28;;;;;;;4.47;4.00;;;21.80;65.80;;;;;;5029094;28;20204;-44
2023/08/28 05:15:54;;;;;;;5.67;5.03;;;21.80;65.60;;;;;;5027432;28;20229;-45
2023/08/28 05:18:19;;;;;;;7.67;4.70;;;21.90;67.20;;;;;;5026939;28;20196;-48
2023/08/28 05:20:45;;;;;;;6.80;4.97;;;22.00;67.20;;;;;;5026765;28;20280;-45
2023/08/28 05:23:11;;;;;;;9.23;4.83;;;22.10;67.00;;;;;;5026383;28;20201;-44
2023/08/28 05:25:36;;;;;;;5.70;5.27;;;22.20;66.50;;;;;;5028158;28;20186;-44
2023/08/28 05:28:02;;;;;;;5.83;4.67;;;22.40;66.10;;;;;;5028388;28;20206;-46
2023/08/28 05:30:27;;;;;;;5.07;4.57;;;22.50;65.50;;;;;;5031388;28;20193;-45
2023/08/28 05:32:53;;;;;;;5.93;5.23;;;22.60;64.50;;;;;;5029972;28;20704;-47
2023/08/28 05:35:18;;;;;;;5.83;5.33;;;22.50;63.30;;;;;;5028846;28;20213;-44
2023/08/28 05:37:44;;;;;;;5.50;5.00;;;22.40;62.70;;;;;;5028847;28;20198;-45
2023/08/28 05:40:14;;;;;;;5.60;5.10;;;22.40;63.00;;;;;;5026244;28;20199;-46
2023/08/28 05:42:41;;;;;;;4.87;4.23;;;22.20;63.10;;;;;;5022351;28;20189;-45
2023/08/28 05:45:07;;;;;;;4.73;4.23;;;22.10;63.40;;;;;;5027694;28;20467;-45
2023/08/28 05:47:36;;;;;;;5.13;4.67;;;22.10;63.80;;;;;;5024164;28;20507;-48
2023/08/28 05:50:01;;;;;;;4.37;4.07;;;22.00;64.00;;;;;;5029358;28;20431;-46
2023/08/28 05:52:27;;;;;;;4.37;4.07;;;21.90;64.30;;;;;;5027947;28;20537;-46
2023/08/28 05:54:52;;;;;;;4.90;4.30;;;21.90;64.60;;;;;;5025980;28;20315;-46
2023/08/28 05:57:19;;;;;;;4.00;3.70;;;21.80;64.90;;;;;;5028531;28;20617;-47
2023/08/28 05:59:45;;;;;;;4.50;4.20;;;21.80;65.20;;;;;;5018311;28;20204;-46
2023/08/28 06:02:10;;;;;;;4.37;4.07;;;21.80;65.10;;;;;;5018493;28;20534;-51
2023/08/28 06:04:36;;;;;;;4.60;4.07;;;21.80;65.30;;;;;;5024252;28;20197;-52
2023/08/28 06:07:02;;;;;;;4.50;3.90;;;21.70;65.30;;;;;;5014582;28;20201;-45
2023/08/28 06:09:27;;;;;;;4.57;3.93;;;21.70;65.40;;;;;;5019471;28;20555;-44
2023/08/28 06:11:53;;;;;;;3.70;3.40;;;21.70;65.70;;;;;;5023724;28;20199;-46
2023/08/28 06:14:18;;;;;;;4.40;3.97;;;21.60;65.60;;;;;;5021579;28;20196;-45
2023/08/28 06:16:44;;;;;;;4.00;3.70;;;21.60;65.90;;;;;;5026556;28;20224;-46
2023/08/28 06:19:09;;;;;;;4.20;3.80;;;21.60;66.20;;;;;;5028030;28;20197;-45
2023/08/28 06:21:35;;;;;;;4.00;3.70;;;21.50;66.50;;;;;;5023807;28;20198;-44
2023/08/28 06:24:00;;;;;;;4.27;3.90;;;21.50;66.90;;;;;;5033805;28;20193;-44
2023/08/28 06:26:26;;;;;;;4.80;4.40;;;21.50;67.10;;;;;;5032008;28;20280;-44
2023/08/28 06:28:51;;;;;;;4.60;4.20;;;21.50;67.20;;;;;;5034568;28;20204;-47
2023/08/28 06:31:17;;;;;;;8.07;3.87;;;21.50;67.30;;;;;;5032653;28;20204;-48
2023/08/28 06:33:42;;;;;;;4.37;3.97;;;21.50;67.80;;;;;;5027623;28;20198;-45
2023/08/28 06:36:08;;;;;;;6.23;4.70;;;21.50;67.80;;;;;;5029094;28;20271;-45
2023/08/28 06:38:33;;;;;;;6.03;4.80;;;21.50;67.90;;;;;;5030483;28;20203;-46
2023/08/28 06:41:00;;;;;;;5.20;4.67;;;21.50;67.90;;;;;;5038694;28;20203;-44
2023/08/28 06:43:28;;;;;;;4.70;4.30;;;21.50;67.60;;;;;;5035337;28;20189;-47
2023/08/28 06:45:53;;;;;;;5.10;4.70;;;21.50;67.60;;;;;;5031877;28;20518;-44
2023/08/28 06:48:19;;;;;;;4.20;3.80;;;21.50;67.60;;;;;;5033814;28;20448;-45
2023/08/28 06:50:44;;;;;;;4.57;4.27;;;21.50;67.60;;;;;;5048207;28;20205;-48
2023/08/28 06:53:10;;;;;;;6.10;4.40;;;21.50;68.40;;;;;;5041195;28;20255;-45
2023/08/28 06:55:36;;;;;;;4.93;4.60;;;21.50;67.60;;;;;;5038449;28;20320;-44
2023/08/28 06:58:03;;;;;;;4.30;3.93;;;21.50;67.60;;;;;;5044646;28;20267;-44
2023/08/28 07:00:28;;;;;;;4.77;4.37;;;21.50;67.60;;;;;;5036433;28;20440;-45
2023/08/28 07:02:54;;;;;;;6.90;5.10;;;21.50;67.50;;;;;;5035173;28;20934;-47
2023/08/28 07:05:20;;;;;;;4.60;4.20;;;21.50;67.70;;;;;;5021855;28;20194;-46
2023/08/28 07:07:46;;;;;;;5.33;4.30;;;21.60;67.80;;;;;;5030335;28;20945;-47
2023/08/28 07:10:11;;;;;;;5.83;4.60;;;21.50;67.60;;;;;;5026851;28;20225;-44
2023/08/28 07:12:37;;;;;;;4.80;4.50;;;21.50;67.60;;;;;;5040212;28;20193;-44
2023/08/28 07:15:26;;;;;;;5.70;5.20;;;21.50;67.90;;;;;;5044047;28;20185;-45
2023/08/28 07:17:51;;;;;;;5.70;5.30;;;21.40;68.40;;;;;;5036662;28;20216;-46
2023/08/28 07:20:17;;;;;;;5.70;5.30;;;21.40;69.20;;;;;;5033994;28;20433;-44
2023/08/28 07:22:43;;;;;;;5.70;4.27;;;21.40;68.20;;;;;;5023608;28;20654;-44
2023/08/28 07:25:09;;;;;;;5.17;4.57;;;21.40;68.30;;;;;;5031543;28;20189;-45
2023/08/28 07:27:34;;;;;;;4.90;4.10;;;21.40;68.50;;;;;;5036207;28;20193;-46
2023/08/28 07:30:03;;;;;;;5.00;4.50;;;21.30;68.20;;;;;;5035334;28;20190;-45
2023/08/28 07:32:29;;;;;;;5.93;5.27;;;21.40;68.50;;;;;;5042425;28;20563;-44
2023/08/28 07:34:55;;;;;;;6.23;4.97;;;21.30;68.60;;;;;;5037737;28;20812;-44
2023/08/28 07:37:21;;;;;;;8.83;5.13;;;21.30;68.70;;;;;;5022573;28;20839;-44
2023/08/28 07:39:46;;;;;;;4.37;3.97;;;21.40;68.60;;;;;;5038840;28;20450;-44
2023/08/28 07:42:12;;;;;;;6.07;4.63;;;21.50;68.60;;;;;;5047503;28;20669;-44
2023/08/28 07:44:37;;;;;;;4.90;4.50;;;21.50;68.20;;;;;;5040059;28;20200;-44
2023/08/28 07:47:03;;;;;;;4.10;3.80;;;21.50;68.20;;;;;;5035019;28;20220;-44
2023/08/28 07:49:29;;;;;;;4.13;3.83;;;21.50;68.30;;;;;;5046495;28;20592;-46
2023/08/28 07:51:54;;;;;;;4.97;4.50;;;21.60;68.20;;;;;;5042145;28;20196;-44
2023/08/28 07:54:20;;;;;;;5.43;4.27;;;21.60;67.90;;;;;;5033097;28;20225;-45
2023/08/28 07:56:45;;;;;;;5.33;3.97;;;21.70;68.00;;;;;;5037123;28;20224;-46
2023/08/28 07:59:11;;;;;;;6.23;3.80;;;21.70;67.70;;;;;;5034168;28;20192;-45
2023/08/28 08:01:37;;;;;;;4.00;3.60;;;21.70;67.40;;;;;;5037274;28;20713;-44
2023/08/28 08:04:03;;;;;;;3.70;3.40;;;21.70;66.70;;;;;;5035696;28;20201;-45
2023/08/28 08:06:29;;;;;;;4.30;3.90;;;21.70;66.20;;;;;;5032698;28;20444;-46
2023/08/28 08:08:54;;;;;;;4.37;3.97;;;21.60;66.60;;;;;;5038716;28;20224;-45
2023/08/28 08:11:20;;;;;;;4.13;3.30;;;21.70;66.60;;;;;;5022965;28;20262;-45
2023/08/28 08:13:45;;;;;;;3.50;3.23;;;21.80;66.50;;;;;;5032625;28;20259;-46
2023/08/28 08:16:11;;;;;;;4.27;3.10;;;21.90;66.20;;;;;;5038247;28;20284;-44
2023/08/28 08:18:36;;;;;;;6.30;3.40;;;21.90;66.10;;;;;;5031852;28;20200;-45
2023/08/28 08:21:03;;;;;;;2.90;2.60;;;22.00;65.80;;;;;;5032554;28;20193;-44
2023/08/28 08:23:28;;;;;;;2.77;2.50;;;22.00;65.30;;;;;;5043052;28;20192;-44
2023/08/28 08:25:58;;;;;;;2.90;2.60;;;22.00;64.80;;;;;;5041452;28;20496;-47
2023/08/28 08:28:23;;;;;;;5.03;2.63;;;22.10;64.10;;;;;;5044487;28;20200;-47
2023/08/28 08:30:49;;;;;;;3.57;2.60;;;22.10;63.10;;;;;;5042272;28;20435;-49
2023/08/28 08:33:14;;;;;;;3.23;2.33;;;22.20;62.80;;;;;;5037054;28;20697;-45
2023/08/28 08:35:40;;;;;;;2.60;2.40;;;22.20;62.90;;;;;;5033152;28;20236;-44
2023/08/28 08:38:06;;;;;;;13.40;2.97;;;22.20;63.30;;;;;;5041093;28;20189;-45
2023/08/28 08:40:33;;;;;;;2.30;2.10;;;22.20;63.40;;;;;;5035465;28;20188;-46
2023/08/28 08:42:59;;;;;;;2.90;2.70;;;22.40;64.20;;;;;;5036947;28;20189;-46
2023/08/28 08:45:31;;;;;;;4.70;2.50;;;22.40;62.90;;;;;;5042630;28;20436;-45
2023/08/28 08:47:59;;;;;;;2.77;2.53;;;22.40;62.20;;;;;;5021601;28;20193;-44
2023/08/28 08:50:26;;;;;;;3.13;2.93;;;22.50;62.50;;;;;;5030907;28;20456;-44
2023/08/28 08:52:52;;;;;;;2.40;2.20;;;22.50;61.90;;;;;;5035385;28;20576;-45
2023/08/28 08:55:38;;;;;;;2.67;2.43;;;22.40;60.00;;;;;;5042561;28;20488;-46
2023/08/28 08:58:09;;;;;;;3.50;2.43;;;22.50;60.70;;;;;;5039782;28;20448;-44
2023/08/28 09:00:38;;;;;;;12.40;3.23;;;22.50;60.90;;;;;;5035647;28;20451;-44
2023/08/28 09:03:05;;;;;;;3.10;2.77;;;22.60;60.90;;;;;;5040739;28;20814;-44
2023/08/28 09:05:32;;;;;;;1.80;1.63;;;22.60;60.50;;;;;;5026805;28;20439;-44
2023/08/28 09:08:00;;;;;;;3.80;1.90;;;22.60;60.00;;;;;;5016125;28;20450;-48
2023/08/28 09:10:26;;;;;;;1.50;1.40;;;22.60;60.10;;;;;;5026974;28;20444;-46
2023/08/28 09:12:53;;;;;;;3.20;1.90;;;22.70;60.30;;;;;;5031788;28;20876;-48
2023/08/28 09:15:19;;;;;;;3.60;2.47;;;22.70;60.60;;;;;;5021404;28;20242;-44
2023/08/28 09:17:45;;;;;;;2.43;2.00;;;22.70;60.00;;;;;;5012342;28;20449;-45
2023/08/28 09:20:14;;;;;;;2.53;1.90;;;22.70;59.30;;;;;;5021841;28;20532;-45
2023/08/28 09:22:51;;;;;;;3.00;1.93;;;22.70;59.00;;;;;;5019071;28;20615;-46
2023/08/28 09:25:18;;;;;;;2.60;1.60;;;22.80;59.10;;;;;;5024760;28;20447;-48
2023/08/28 09:27:49;;;;;;;1.70;1.60;;;22.80;58.60;;;;;;5028761;28;20455;-44
2023/08/28 09:30:37;;;;;;;1.47;1.37;;;22.80;58.80;;;;;;5026439;28;20463;-47
2023/08/28 09:33:05;;;;;;;2.90;1.70;;;23.00;59.50;;;;;;5023912;28;20597;-46
2023/08/28 09:35:41;;;;;;;1.70;1.60;;;23.10;59.60;;;;;;5021866;28;20847;-51
2023/08/28 09:38:08;;;;;;;2.00;1.37;;;23.20;59.20;;;;;;5032080;28;20525;-46
2023/08/28 09:40:36;;;;;;;1.60;1.50;;;23.30;58.70;;;;;;5029667;28;20447;-49
2023/08/28 09:43:12;;;;;;;2.10;1.43;;;23.30;58.40;;;;;;5023749;28;20436;-46
2023/08/28 09:45:38;;;;;;;1.50;1.33;;;23.40;58.00;;;;;;5015075;28;20971;-44
2023/08/28 09:48:05;;;;;;;1.60;1.50;;;23.50;58.30;;;;;;5025029;28;20478;-46
2023/08/28 09:50:32;;;;;;;1.50;1.40;;;23.40;58.00;;;;;;5027232;28;20471;-45
2023/08/28 09:53:12;;;;;;;2.90;1.40;;;23.30;58.50;;;;;;5034988;28;20448;-46
2023/08/28 09:55:49;;;;;;;2.00;1.90;;;23.20;57.80;;;;;;5023027;28;20487;-46
2023/08/28 09:58:16;;;;;;;2.10;2.00;;;23.10;57.60;;;;;;5018598;28;20475;-48
2023/08/28 10:00:42;;;;;;;2.23;1.40;;;23.10;58.00;;;;;;5032014;28;20968;-44
2023/08/28 10:03:10;;;;;;;3.57;1.73;;;23.00;57.90;;;;;;5022596;28;20534;-44
2023/08/28 10:05:37;;;;;;;1.80;1.70;;;23.00;58.20;;;;;;5021043;28;20443;-44
2023/08/28 10:08:08;;;;;;;1.80;1.70;;;23.10;58.50;;;;;;5022913;28;20561;-44
2023/08/28 10:10:34;;;;;;;2.03;1.70;;;23.20;58.90;;;;;;5024410;28;20455;-44
2023/08/28 10:13:03;;;;;;;1.83;1.73;;;23.30;58.30;;;;;;5026937;28;20560;-45
2023/08/28 10:15:31;;;;;;;2.90;1.87;;;23.40;58.50;;;;;;5025695;28;20493;-49
2023/08/28 10:18:04;;;;;;;2.03;1.57;;;23.50;58.90;;;;;;5023428;28;20946;-48
2023/08/28 10:20:30;;;;;;;1.97;1.80;;;23.50;57.70;;;;;;5020602;28;20941;-47
2023/08/28 10:22:57;;;;;;;2.53;1.63;;;23.50;56.40;;;;;;5025681;28;20919;-51
2023/08/28 10:25:25;;;;;;;1.80;1.70;;;23.60;56.50;;;;;;5029955;28;20448;-47
2023/08/28 10:27:52;;;;;;;2.67;1.80;;;23.50;56.90;;;;;;5026083;28;20578;-47
2023/08/28 10:30:21;;;;;;;3.00;2.00;;;23.60;57.00;;;;;;5018365;28;20448;-47
2023/08/28 10:32:48;;;;;;;2.30;2.10;;;23.60;56.00;;;;;;5024873;28;20550;-47
2023/08/28 10:35:16;;;;;;;2.53;2.00;;;23.70;56.40;;;;;;5028600;28;20454;-45
2023/08/28 10:37:43;;;;;;;7.00;2.03;;;23.80;57.00;;;;;;5025541;28;20935;-46
2023/08/28 10:40:12;;;;;;;2.80;1.90;;;23.80;56.70;;;;;;5028677;28;20443;-50
2023/08/28 10:42:38;;;;;;;2.97;2.10;;;23.90;56.50;;;;;;5025830;28;20444;-46
2023/08/28 10:45:04;;;;;;;2.33;2.13;;;24.00;56.10;;;;;;5023242;28;20456;-48
2023/08/28 10:47:30;;;;;;;4.70;2.20;;;24.10;55.60;;;;;;5026980;28;20454;-47
2023/08/28 10:49:56;;;;;;;2.77;1.87;;;24.00;54.80;;;;;;5028480;28;20436;-48
2023/08/28 10:52:22;;;;;;;2.00;1.77;;;24.00;55.40;;;;;;5025324;28;20190;-47
2023/08/28 10:54:48;;;;;;;1.90;1.80;;;24.00;55.30;;;;;;5020199;28;21655;-49
2023/08/28 10:57:27;;;;;;;2.40;2.17;;;23.90;54.60;;;;;;5025463;28;20484;-47
2023/08/28 10:59:54;;;;;;;2.23;1.80;;;23.90;54.60;;;;;;5024149;28;20568;-46
2023/08/28 11:02:20;;;;;;;2.50;2.00;;;23.50;55.80;;;;;;5023871;28;21025;-48
2023/08/28 11:04:46;;;;;;;2.33;1.70;;;23.50;56.50;;;;;;5025564;28;20440;-48
2023/08/28 11:07:21;;;;;;;3.37;2.30;;;23.70;57.10;;;;;;5026952;28;20838;-46
2023/08/28 11:09:47;;;;;;;1.70;1.60;;;23.80;56.30;;;;;;5023948;28;20463;-51
2023/08/28 11:12:16;;;;;;;2.07;1.80;;;23.80;54.90;;;;;;5024422;28;20443;-46
2023/08/28 11:14:56;;;;;;;3.63;2.87;;;23.80;54.90;;;;;;5024618;28;20462;-45
2023/08/28 11:17:23;;;;;;;1.63;1.53;;;23.90;55.00;;;;;;5025701;28;20483;-47
2023/08/28 11:19:52;;;;;;;2.00;1.90;;;23.80;54.60;;;;;;5031192;28;20533;-46
2023/08/28 11:22:42;;;;;;;2.47;2.03;;;23.70;55.80;;;;;;5035052;28;20811;-47
2023/08/28 11:25:34;;;;;;;1.70;1.60;;;23.90;56.40;;;;;;5030393;28;20444;-50
2023/08/28 11:28:00;;;;;;;2.10;1.73;;;24.00;55.20;;;;;;5030022;28;20566;-45
2023/08/28 11:30:26;;;;;;;1.63;1.53;;;24.00;54.20;;;;;;5035508;28;20525;-47
2023/08/28 11:32:54;;;;;;;1.60;1.43;;;24.10;53.70;;;;;;5027334;28;21031;-46
2023/08/28 11:35:23;;;;;;;1.80;1.33;;;24.20;53.70;;;;;;5032276;28;20195;-48
2023/08/28 11:37:53;;;;;;;1.43;1.10;;;24.30;52.60;;;;;;5024324;28;20454;-45
2023/08/28 11:40:21;;;;;;;1.50;1.40;;;24.20;52.70;;;;;;5033682;28;20436;-50
2023/08/28 11:42:48;;;;;;;1.90;1.60;;;24.10;53.50;;;;;;5033877;28;20488;-47
2023/08/28 11:45:21;;;;;;;1.20;1.00;;;24.00;53.00;;;;;;5031107;28;20483;-47
2023/08/28 11:47:46;;;;;;;1.90;1.17;;;24.10;52.80;;;;;;5030433;28;20444;-50
2023/08/28 11:50:12;;;;;;;1.70;1.10;;;24.00;51.60;;;;;;5029488;28;20446;-45
2023/08/28 11:52:37;;;;;;;1.63;1.10;;;24.00;51.70;;;;;;5027647;28;20192;-45
2023/08/28 11:55:04;;;;;;;2.50;1.67;;;24.00;51.80;;;;;;5021082;28;20233;-50
2023/08/28 11:57:32;;;;;;;2.50;1.43;;;24.10;52.30;;;;;;5030537;28;20288;-45
2023/08/28 12:00:00;;;;;;;1.40;1.30;;;24.00;52.80;;;;;;5033057;28;20554;-50
2023/08/28 12:02:26;;;;;;;1.80;1.43;;;24.00;52.70;;;;;;5011863;28;20523;-48
2023/08/28 12:04:52;;;;;;;2.67;1.30;;;24.00;52.60;;;;;;5032176;28;20431;-47
2023/08/28 12:07:18;;;;;;;1.57;1.30;;;23.90;51.00;;;;;;5031271;28;20464;-45
2023/08/28 12:09:49;;;;;;;1.30;1.20;;;23.90;51.70;;;;;;5019669;28;20200;-44
2023/08/28 12:12:15;;;;;;;2.47;1.20;;;23.90;52.00;;;;;;5025147;28;20436;-45
2023/08/28 12:14:46;;;;;;;2.50;1.17;;;24.10;52.60;;;;;;5028239;28;20473;-49
2023/08/28 12:17:20;;;;;;;2.13;1.23;;;24.10;52.70;;;;;;5027041;28;20476;-48
2023/08/28 12:19:48;;;;;;;1.30;1.20;;;24.00;52.00;;;;;;5029759;28;20482;-44
2023/08/28 12:22:14;;;;;;;1.30;1.20;;;24.00;51.50;;;;;;5030261;28;20440;-44
2023/08/28 12:24:44;;;;;;;1.20;1.10;;;24.00;52.60;;;;;;5029714;28;20440;-45
2023/08/28 12:27:11;;;;;;;2.47;1.30;;;24.10;52.40;;;;;;5024701;28;20197;-45
2023/08/28 12:29:37;;;;;;;2.47;1.20;;;24.30;52.80;;;;;;5030078;28;20485;-46
2023/08/28 12:32:06;;;;;;;2.07;1.30;;;24.30;52.60;;;;;;5031774;28;20466;-45
2023/08/28 12:34:33;;;;;;;1.73;1.47;;;24.30;51.60;;;;;;5034800;28;20471;-45
2023/08/28 12:37:06;;;;;;;1.60;1.47;;;24.40;52.00;;;;;;5026497;28;20493;-44
2023/08/28 12:39:33;;;;;;;1.40;1.30;;;24.30;52.40;;;;;;5023533;28;20465;-49
2023/08/28 12:41:58;;;;;;;2.40;1.30;;;24.10;52.30;;;;;;5016983;28;20446;-50
2023/08/28 12:44:27;;;;;;;1.30;1.20;;;24.10;52.50;;;;;;5027569;28;20559;-47
2023/08/28 12:46:54;;;;;;;1.30;1.20;;;24.00;51.60;;;;;;5017162;28;20193;-51
2023/08/28 12:49:20;;;;;;;1.70;1.40;;;24.00;52.80;;;;;;5009246;28;20448;-49